Time;durP1;ratioP1;P1;durP2;ratioP2;P2;SDS_P1;SDS_P2;PMS_P1;PMS_P2;Temp;Humidity;BMP_temperature;BMP_pressure;BME280_temperature;BME280_humidity;BME280_pressure;Samples;Min_cycle;Max_cycle;Signal;HPM_P1;HPM_P2
2024/04/24 00:00:37;;;;;;;3.70;2.20;;;11.90;46.20;;;;;;6840826;25;20116;-68
2024/04/24 00:03:38;;;;;;;5.70;2.38;;;11.80;46.30;;;;;;6839008;26;19997;-67
2024/04/24 00:06:40;;;;;;;4.57;2.45;;;11.70;46.30;;;;;;6838362;26;19997;-68
2024/04/24 00:09:41;;;;;;;4.22;1.92;;;11.70;46.20;;;;;;6840125;26;20065;-68
2024/04/24 00:12:41;;;;;;;2.63;1.98;;;11.70;46.10;;;;;;6838909;26;20005;-68
2024/04/24 00:15:44;;;;;;;8.88;2.25;;;11.70;46.00;;;;;;6839061;26;20013;-68
2024/04/24 00:18:46;;;;;;;3.28;2.28;;;11.70;45.80;;;;;;6839650;26;20754;-67
2024/04/24 00:21:47;;;;;;;7.88;2.67;;;11.70;45.80;;;;;;6839139;26;20167;-65
2024/04/24 00:24:48;;;;;;;5.82;2.92;;;11.80;46.00;;;;;;6840785;26;20016;-67
2024/04/24 00:27:55;;;;;;;4.97;2.70;;;11.80;46.70;;;;;;6837553;26;20424;-66
2024/04/24 00:31:00;;;;;;;3.97;2.45;;;11.80;46.20;;;;;;6831652;26;20003;-69
2024/04/24 00:34:04;;;;;;;5.82;2.58;;;11.80;46.30;;;;;;6837680;25;20017;-67
2024/04/24 00:37:05;;;;;;;5.00;2.67;;;11.80;46.50;;;;;;6837386;25;19993;-67
2024/04/24 00:40:07;;;;;;;6.70;2.65;;;11.80;46.50;;;;;;6832650;26;20004;-67
2024/04/24 00:43:07;;;;;;;5.82;3.17;;;11.70;46.40;;;;;;6792462;26;20087;-68
2024/04/24 00:46:11;;;;;;;3.92;2.55;;;11.80;46.40;;;;;;6803428;26;20471;-70
2024/04/24 00:49:13;;;;;;;9.18;2.75;;;11.80;46.40;;;;;;6837403;26;20005;-68
2024/04/24 00:52:14;;;;;;;4.72;3.00;;;11.80;46.50;;;;;;6837431;26;19998;-68
2024/04/24 00:55:15;;;;;;;3.97;2.88;;;11.80;46.50;;;;;;6837351;25;20013;-67
2024/04/24 00:58:18;;;;;;;3.55;2.75;;;11.80;46.50;;;;;;6829248;26;20415;-69
2024/04/24 01:01:21;;;;;;;3.45;2.35;;;11.80;46.50;;;;;;6806260;26;20020;-67
2024/04/24 01:04:22;;;;;;;5.63;2.72;;;11.70;46.50;;;;;;6839652;25;20009;-68
2024/04/24 01:07:23;;;;;;;6.85;3.35;;;11.70;46.60;;;;;;6806199;26;20047;-67
2024/04/24 01:10:24;;;;;;;5.18;2.80;;;11.70;46.60;;;;;;6836898;25;20097;-67
2024/04/24 01:13:26;;;;;;;9.82;3.22;;;11.60;46.50;;;;;;6839544;26;20005;-68
2024/04/24 01:16:34;;;;;;;4.75;2.65;;;11.50;46.50;;;;;;6838633;26;19994;-67
2024/04/24 01:19:48;;;;;;;;;;;11.50;46.50;;;;;;6807565;26;19998;-67
2024/04/24 01:23:04;;;;;;;4.82;2.53;;;11.40;46.40;;;;;;6829769;26;20326;-66
2024/04/24 01:26:42;;;;;;;7.43;3.30;;;11.40;46.50;;;;;;6806449;26;20114;-66
2024/04/24 01:29:44;;;;;;;4.68;2.47;;;11.40;46.60;;;;;;6784243;26;20057;-69
2024/04/24 01:32:45;;;;;;;7.18;2.55;;;11.30;46.70;;;;;;6806062;26;20073;-68
2024/04/24 01:35:46;;;;;;;5.03;2.33;;;11.30;46.60;;;;;;6820959;26;20001;-66
2024/04/24 01:38:47;;;;;;;3.17;2.13;;;11.40;46.60;;;;;;6836852;26;20005;-67
2024/04/24 01:41:48;;;;;;;3.03;2.20;;;11.30;46.60;;;;;;6838461;26;20470;-67
2024/04/24 01:44:48;;;;;;;3.55;2.22;;;11.30;46.50;;;;;;6776047;26;20105;-68
2024/04/24 01:47:50;;;;;;;3.85;2.10;;;11.40;46.60;;;;;;6837054;26;20069;-68
2024/04/24 01:50:50;;;;;;;3.08;2.13;;;11.30;46.60;;;;;;6806027;26;19989;-68
2024/04/24 01:53:54;;;;;;;11.50;2.47;;;11.30;46.50;;;;;;6805969;26;20033;-68
2024/04/24 01:56:55;;;;;;;6.30;2.63;;;11.30;46.60;;;;;;6807803;25;20064;-68
2024/04/24 01:59:57;;;;;;;3.95;2.58;;;11.30;46.60;;;;;;6774669;26;20082;-67
2024/04/24 02:02:59;;;;;;;4.78;2.28;;;11.30;46.60;;;;;;6838883;25;19993;-67
2024/04/24 02:06:00;;;;;;;3.70;2.13;;;11.30;46.60;;;;;;6805749;26;20511;-67
2024/04/24 02:09:01;;;;;;;5.28;2.47;;;11.30;47.20;;;;;;6805780;26;19993;-67
2024/04/24 02:12:03;;;;;;;6.05;2.60;;;11.30;46.70;;;;;;6774904;26;20002;-68
2024/04/24 02:15:05;;;;;;;4.57;2.72;;;11.20;46.60;;;;;;6838374;25;20012;-67
2024/04/24 02:18:06;;;;;;;5.47;2.72;;;11.20;46.70;;;;;;6805695;26;19990;-67
2024/04/24 02:21:10;;;;;;;4.38;2.58;;;11.10;46.60;;;;;;6805369;26;20608;-67
2024/04/24 02:24:19;;;;;;;4.00;2.08;;;11.10;46.60;;;;;;6732495;26;20312;-67
2024/04/24 02:27:20;;;;;;;4.47;2.47;;;11.10;46.70;;;;;;6784076;26;20402;-66
2024/04/24 02:30:21;;;;;;;6.57;2.78;;;11.10;46.80;;;;;;6763923;26;20017;-67
2024/04/24 02:33:22;;;;;;;5.50;2.75;;;11.00;46.80;;;;;;6804758;26;20671;-68
2024/04/24 02:36:23;;;;;;;3.90;2.33;;;11.00;46.90;;;;;;6775586;26;20015;-68
2024/04/24 02:39:24;;;;;;;11.43;3.60;;;11.00;47.00;;;;;;6837671;26;20182;-68
2024/04/24 02:42:26;;;;;;;9.35;2.53;;;11.00;47.10;;;;;;6816931;26;19998;-67
2024/04/24 02:45:27;;;;;;;6.00;2.78;;;10.90;47.20;;;;;;6774758;26;20024;-66
2024/04/24 02:48:28;;;;;;;6.05;2.97;;;10.90;47.20;;;;;;6835638;25;19993;-66
2024/04/24 02:51:32;;;;;;;5.00;2.88;;;10.90;47.30;;;;;;6837096;26;20424;-68
2024/04/24 02:54:33;;;;;;;4.68;2.20;;;10.80;47.30;;;;;;6837041;26;20009;-68
2024/04/24 02:57:34;;;;;;;5.95;2.80;;;10.80;47.20;;;;;;6818679;26;19994;-68
2024/04/24 03:00:36;;;;;;;4.95;2.20;;;10.80;47.10;;;;;;6840518;26;19993;-68
2024/04/24 03:03:37;;;;;;;7.47;2.90;;;10.80;47.10;;;;;;6843177;26;19993;-67
2024/04/24 03:06:45;;;;;;;4.93;2.53;;;10.80;47.20;;;;;;6840035;26;20002;-67
2024/04/24 03:09:46;;;;;;;3.40;1.97;;;10.80;47.10;;;;;;6839499;25;19993;-67
2024/04/24 03:12:48;;;;;;;7.25;2.25;;;10.70;47.00;;;;;;6839744;26;20339;-68
2024/04/24 03:15:49;;;;;;;5.13;2.53;;;10.70;47.00;;;;;;6842918;25;20021;-67
2024/04/24 03:18:50;;;;;;;6.05;3.20;;;10.70;47.20;;;;;;6841564;25;20435;-66
2024/04/24 03:21:51;;;;;;;3.63;2.22;;;10.60;47.20;;;;;;6836105;26;19997;-69
2024/04/24 03:24:52;;;;;;;4.90;2.33;;;10.60;47.30;;;;;;6810080;26;20005;-67
2024/04/24 03:27:53;;;;;;;5.75;2.97;;;10.60;47.30;;;;;;6810499;26;19997;-67
2024/04/24 03:30:54;;;;;;;4.78;2.17;;;10.50;47.40;;;;;;6839227;25;20005;-67
2024/04/24 03:33:54;;;;;;;6.25;3.25;;;10.50;47.30;;;;;;6840666;25;19993;-68
2024/04/24 03:36:55;;;;;;;4.88;2.20;;;10.50;47.30;;;;;;6839463;26;20005;-67
2024/04/24 03:39:56;;;;;;;4.60;2.25;;;10.50;47.40;;;;;;6809173;26;20012;-68
2024/04/24 03:42:57;;;;;;;3.60;2.40;;;10.40;47.40;;;;;;6837444;26;19989;-69
2024/04/24 03:45:59;;;;;;;4.32;2.50;;;10.40;47.60;;;;;;6794673;26;19994;-68
2024/04/24 03:49:00;;;;;;;2.92;1.85;;;10.40;47.60;;;;;;6793518;26;20028;-68
2024/04/24 03:52:01;;;;;;;3.95;2.28;;;10.40;48.30;;;;;;6796927;26;20001;-67
2024/04/24 03:55:02;;;;;;;4.00;1.90;;;10.40;47.70;;;;;;6838929;26;20354;-67
2024/04/24 03:58:04;;;;;;;4.05;2.28;;;10.40;47.70;;;;;;6809440;26;20038;-67
2024/04/24 04:01:04;;;;;;;4.13;2.50;;;10.30;47.70;;;;;;6839471;26;19993;-68
2024/04/24 04:04:06;;;;;;;3.22;2.10;;;10.30;47.60;;;;;;6841397;25;19997;-68
2024/04/24 04:07:08;;;;;;;5.15;2.33;;;10.30;47.70;;;;;;6838675;26;20722;-66
2024/04/24 04:10:09;;;;;;;4.40;2.10;;;10.30;47.70;;;;;;6839232;25;20084;-68
2024/04/24 04:13:13;;;;;;;4.03;2.63;;;10.30;47.80;;;;;;6839998;26;19997;-68
2024/04/24 04:16:14;;;;;;;2.88;2.00;;;10.30;47.70;;;;;;6808830;26;20009;-67
2024/04/24 04:19:15;;;;;;;3.08;1.92;;;10.20;47.70;;;;;;6840391;26;19997;-68
2024/04/24 04:22:16;;;;;;;5.00;2.40;;;10.20;47.70;;;;;;6838216;26;20117;-68
2024/04/24 04:25:17;;;;;;;7.85;2.42;;;10.20;47.70;;;;;;6793391;26;20017;-68
2024/04/24 04:28:17;;;;;;;6.07;2.75;;;10.20;47.60;;;;;;6817275;26;20005;-66
2024/04/24 04:31:18;;;;;;;3.67;2.42;;;10.30;47.50;;;;;;6838800;26;20012;-67
2024/04/24 04:34:19;;;;;;;3.85;1.83;;;10.30;47.40;;;;;;6840855;26;20086;-67
2024/04/24 04:37:20;;;;;;;4.55;2.35;;;10.30;47.30;;;;;;6840458;26;20343;-67
2024/04/24 04:40:21;;;;;;;3.05;1.75;;;10.30;47.10;;;;;;6832674;26;20023;-68
2024/04/24 04:43:22;;;;;;;5.22;2.00;;;10.30;47.00;;;;;;6836749;26;20001;-67
2024/04/24 04:46:23;;;;;;;4.82;2.55;;;10.30;46.90;;;;;;6839110;26;19997;-67
2024/04/24 04:49:24;;;;;;;4.28;2.50;;;10.30;46.90;;;;;;6839970;25;20038;-66
2024/04/24 04:52:25;;;;;;;3.95;2.08;;;10.30;46.70;;;;;;6837452;25;20109;-70
2024/04/24 04:55:25;;;;;;;3.30;2.08;;;10.30;46.60;;;;;;6838837;26;20013;-67
2024/04/24 04:58:28;;;;;;;3.25;2.35;;;10.30;46.50;;;;;;6842252;25;20402;-66
2024/04/24 05:01:29;;;;;;;5.07;2.58;;;10.40;46.50;;;;;;6809291;26;20074;-67
2024/04/24 05:04:30;;;;;;;3.92;2.00;;;10.40;46.40;;;;;;6806878;26;19993;-68
2024/04/24 05:07:32;;;;;;;2.88;2.08;;;10.40;46.50;;;;;;6841695;26;20065;-67
2024/04/24 05:10:33;;;;;;;2.33;1.52;;;10.30;46.40;;;;;;6809208;26;20346;-68
2024/04/24 05:13:34;;;;;;;3.40;2.15;;;10.30;46.50;;;;;;6811861;26;20074;-66
2024/04/24 05:16:34;;;;;;;8.05;2.33;;;10.40;46.60;;;;;;6807449;26;19997;-68
2024/04/24 05:19:35;;;;;;;3.38;2.10;;;10.40;46.60;;;;;;6808113;26;20009;-67
2024/04/24 05:22:46;;;;;;;4.43;2.33;;;10.30;46.40;;;;;;6776514;26;20428;-68
2024/04/24 05:25:52;;;;;;;6.10;2.15;;;10.50;46.60;;;;;;6812223;26;20030;-64
2024/04/24 05:29:06;;;;;;;3.50;2.30;;;10.40;46.60;;;;;;6807836;26;20105;-68
2024/04/24 05:32:07;;;;;;;3.95;2.53;;;10.40;46.60;;;;;;6840257;26;19997;-68
2024/04/24 05:35:08;;;;;;;3.90;1.67;;;10.40;46.60;;;;;;6776326;26;20012;-67
2024/04/24 05:38:10;;;;;;;5.47;2.20;;;10.40;46.60;;;;;;6840560;26;20008;-67
2024/04/24 05:41:12;;;;;;;3.25;2.00;;;10.40;46.70;;;;;;6839358;25;20012;-68
2024/04/24 05:44:12;;;;;;;3.40;2.17;;;10.40;46.80;;;;;;6839558;26;19997;-67
2024/04/24 05:47:13;;;;;;;9.88;2.65;;;10.40;46.80;;;;;;6776297;26;20421;-67
2024/04/24 05:50:14;;;;;;;3.72;1.80;;;10.40;46.80;;;;;;6776012;26;19998;-67
2024/04/24 05:53:15;;;;;;;3.63;1.80;;;10.40;46.70;;;;;;6805069;26;20009;-68
2024/04/24 05:56:16;;;;;;;4.53;2.40;;;10.40;46.70;;;;;;6774920;26;20066;-69
2024/04/24 05:59:17;;;;;;;5.72;2.00;;;10.40;46.70;;;;;;6805661;26;20523;-68
2024/04/24 06:02:18;;;;;;;6.57;2.17;;;10.40;46.80;;;;;;6805743;26;20008;-67
2024/04/24 06:05:18;;;;;;;3.10;2.08;;;10.40;47.00;;;;;;6805229;26;19997;-68
2024/04/24 06:08:19;;;;;;;2.85;2.08;;;10.40;47.10;;;;;;6804810;26;20010;-68
2024/04/24 06:11:20;;;;;;;5.35;2.60;;;10.40;47.10;;;;;;6827629;26;20028;-68
2024/04/24 06:14:21;;;;;;;6.95;2.70;;;10.50;47.00;;;;;;6837560;26;20001;-70
2024/04/24 06:17:22;;;;;;;8.20;2.25;;;10.50;46.90;;;;;;6804220;26;20072;-68
2024/04/24 06:20:25;;;;;;;7.43;2.78;;;10.40;46.70;;;;;;6805595;26;20033;-67
2024/04/24 06:23:26;;;;;;;2.40;1.73;;;10.40;46.80;;;;;;6837208;26;20002;-68
2024/04/24 06:26:27;;;;;;;8.30;2.00;;;10.40;46.90;;;;;;6836810;26;20028;-67
2024/04/24 06:29:30;;;;;;;5.18;2.10;;;10.40;46.90;;;;;;6803957;26;20029;-68
2024/04/24 06:32:31;;;;;;;7.35;2.22;;;10.40;46.80;;;;;;6802903;26;20046;-68
2024/04/24 06:35:33;;;;;;;5.05;2.53;;;10.50;46.80;;;;;;6805529;26;20001;-68
2024/04/24 06:38:34;;;;;;;4.03;2.10;;;10.50;46.60;;;;;;6842497;26;20008;-67
2024/04/24 06:41:36;;;;;;;4.30;2.63;;;10.60;46.60;;;;;;6842818;26;20982;-67
2024/04/24 06:44:37;;;;;;;3.58;2.15;;;10.60;46.50;;;;;;6808073;26;20073;-67
2024/04/24 06:47:37;;;;;;;3.35;2.47;;;10.70;47.00;;;;;;6840736;26;20002;-67
2024/04/24 06:50:39;;;;;;;3.03;2.13;;;10.80;46.10;;;;;;6816270;25;20009;-67
2024/04/24 06:53:40;;;;;;;5.10;2.20;;;10.90;45.90;;;;;;6808187;26;20043;-67
2024/04/24 06:56:41;;;;;;;3.78;2.22;;;11.00;45.80;;;;;;6808448;25;20318;-68
2024/04/24 06:59:47;;;;;;;6.75;2.75;;;11.10;45.40;;;;;;6841318;26;19998;-66
2024/04/24 07:02:48;;;;;;;4.28;2.42;;;11.20;45.10;;;;;;6841077;26;20582;-67
2024/04/24 07:05:53;;;;;;;3.20;2.00;;;11.20;45.10;;;;;;6809017;26;20002;-67
2024/04/24 07:08:55;;;;;;;3.42;2.00;;;11.20;45.10;;;;;;6842342;26;20104;-67
2024/04/24 07:11:56;;;;;;;3.92;2.22;;;11.30;44.90;;;;;;6841872;26;20009;-68
2024/04/24 07:14:58;;;;;;;2.47;1.85;;;11.40;44.50;;;;;;6808520;26;20074;-68
2024/04/24 07:17:59;;;;;;;4.68;2.25;;;11.40;44.30;;;;;;6841908;25;19997;-68
2024/04/24 07:21:01;;;;;;;3.47;2.53;;;11.50;44.20;;;;;;6810238;26;20064;-68
2024/04/24 07:24:02;;;;;;;4.40;2.50;;;11.50;44.10;;;;;;6778382;26;20406;-69
2024/04/24 07:27:04;;;;;;;4.15;2.08;;;11.60;43.90;;;;;;6840968;26;20050;-68
2024/04/24 07:30:05;;;;;;;4.28;2.50;;;11.70;43.90;;;;;;6808225;26;19997;-68
2024/04/24 07:33:06;;;;;;;6.20;2.47;;;11.80;43.60;;;;;;6808388;26;19989;-67
2024/04/24 07:36:07;;;;;;;5.03;3.08;;;11.80;43.50;;;;;;6777637;26;20016;-68
2024/04/24 07:39:11;;;;;;;3.15;2.17;;;11.80;43.30;;;;;;6841831;26;20037;-68
2024/04/24 07:42:12;;;;;;;5.95;3.10;;;11.80;43.30;;;;;;6779359;26;20064;-68
2024/04/24 07:45:14;;;;;;;9.77;2.35;;;11.70;43.50;;;;;;6776810;26;20028;-68
2024/04/24 07:48:18;;;;;;;4.75;2.58;;;11.70;43.50;;;;;;6806887;26;20008;-68
2024/04/24 07:51:20;;;;;;;5.80;3.03;;;11.70;43.40;;;;;;6808124;26;19997;-67
2024/04/24 07:54:21;;;;;;;6.55;2.53;;;11.80;43.20;;;;;;6838619;25;20012;-69
2024/04/24 07:57:22;;;;;;;4.35;2.45;;;11.80;43.10;;;;;;6817755;26;20112;-69
2024/04/24 08:00:23;;;;;;;3.35;2.03;;;11.90;42.90;;;;;;6837796;26;20009;-67
2024/04/24 08:03:24;;;;;;;8.60;2.50;;;11.90;42.80;;;;;;6808976;26;20026;-67
2024/04/24 08:06:26;;;;;;;3.75;2.58;;;11.90;42.70;;;;;;6841359;26;20159;-68
2024/04/24 08:09:27;;;;;;;3.08;2.42;;;11.90;42.70;;;;;;6839212;26;20070;-68
2024/04/24 08:12:27;;;;;;;10.25;2.90;;;12.00;42.80;;;;;;6839987;26;20001;-67
2024/04/24 08:15:28;;;;;;;3.67;2.58;;;12.00;42.80;;;;;;6807648;25;20089;-66
2024/04/24 08:18:30;;;;;;;6.10;3.05;;;12.00;42.70;;;;;;6840451;26;20075;-67
2024/04/24 08:21:30;;;;;;;4.28;2.25;;;12.00;42.90;;;;;;6808222;26;19993;-65
2024/04/24 08:24:33;;;;;;;5.68;2.53;;;11.90;43.20;;;;;;6838728;25;20009;-67
2024/04/24 08:27:35;;;;;;;6.97;3.05;;;12.00;43.40;;;;;;6839609;26;20405;-66
2024/04/24 08:30:36;;;;;;;4.03;2.25;;;12.10;43.50;;;;;;6838393;26;20013;-67
2024/04/24 08:33:37;;;;;;;6.78;2.85;;;12.40;43.40;;;;;;6838849;26;19993;-66
2024/04/24 08:36:37;;;;;;;10.63;2.47;;;12.60;42.90;;;;;;6831335;26;20171;-66
2024/04/24 08:39:38;;;;;;;13.48;3.45;;;12.90;42.50;;;;;;6840073;25;20012;-69
2024/04/24 08:42:39;;;;;;;10.43;2.90;;;13.00;41.80;;;;;;6836794;26;20037;-67
2024/04/24 08:45:41;;;;;;;4.10;2.67;;;13.10;41.50;;;;;;6839989;26;20064;-68
2024/04/24 08:48:43;;;;;;;3.67;2.63;;;13.20;41.50;;;;;;6838598;26;20435;-68
2024/04/24 08:51:45;;;;;;;4.50;2.45;;;13.40;40.80;;;;;;6840964;26;20013;-69
2024/04/24 08:54:51;;;;;;;5.28;3.28;;;13.40;40.00;;;;;;6837688;25;19998;-67
2024/04/24 08:57:52;;;;;;;3.65;2.30;;;13.40;39.60;;;;;;6837413;26;20134;-68
2024/04/24 09:00:57;;;;;;;3.08;2.20;;;13.30;39.20;;;;;;6837843;26;19997;-66
2024/04/24 09:04:08;;;;;;;4.28;2.45;;;13.20;39.50;;;;;;6836390;26;20580;-69
2024/04/24 09:07:12;;;;;;;3.72;2.35;;;13.20;39.60;;;;;;6835131;26;20017;-67
2024/04/24 09:10:13;;;;;;;17.08;3.22;;;13.20;39.30;;;;;;6806708;26;20047;-67
2024/04/24 09:13:14;;;;;;;4.35;2.70;;;13.30;39.30;;;;;;6836645;26;20141;-69
2024/04/24 09:16:18;;;;;;;11.80;2.40;;;13.30;39.10;;;;;;6835340;26;20037;-67
2024/04/24 09:19:19;;;;;;;7.03;2.65;;;13.20;39.30;;;;;;6836824;26;20035;-67
2024/04/24 09:22:20;;;;;;;5.13;2.35;;;13.30;38.80;;;;;;6838102;26;20414;-68
2024/04/24 09:25:21;;;;;;;9.43;2.28;;;13.20;38.80;;;;;;6834254;26;20404;-68
2024/04/24 09:28:24;;;;;;;4.47;2.50;;;13.50;39.10;;;;;;6790804;26;20098;-68
2024/04/24 09:31:26;;;;;;;4.80;2.60;;;13.50;38.60;;;;;;6821459;26;20435;-68
2024/04/24 09:34:29;;;;;;;7.53;2.35;;;13.50;38.50;;;;;;6831274;26;20013;-66
2024/04/24 09:37:32;;;;;;;5.78;3.05;;;13.50;38.60;;;;;;6835731;26;20449;-67
2024/04/24 09:40:34;;;;;;;7.82;3.25;;;13.50;39.10;;;;;;6806055;26;20008;-69
2024/04/24 09:43:36;;;;;;;3.72;2.42;;;13.60;38.30;;;;;;6805150;26;20041;-67
2024/04/24 09:46:43;;;;;;;4.07;2.53;;;13.70;38.30;;;;;;6804679;26;19993;-67
2024/04/24 09:49:45;;;;;;;2.50;2.10;;;13.70;38.40;;;;;;6838087;26;19993;-69
2024/04/24 09:52:47;;;;;;;4.57;2.60;;;13.80;38.30;;;;;;6835506;26;19993;-67
2024/04/24 09:56:00;;;;;;;6.75;3.10;;;13.80;38.10;;;;;;6804256;26;20552;-67
2024/04/24 09:59:04;;;;;;;5.07;3.05;;;13.80;37.80;;;;;;6835772;26;20044;-68
2024/04/24 10:02:07;;;;;;;5.18;2.55;;;13.80;37.70;;;;;;6836717;26;20406;-68
2024/04/24 10:05:20;;;;;;;3.42;2.55;;;13.90;37.90;;;;;;6836160;26;20053;-68
2024/04/24 10:08:33;;;;;;;9.05;2.80;;;14.00;37.70;;;;;;6802903;26;20012;-68
2024/04/24 10:11:42;;;;;;;4.85;2.92;;;14.20;37.30;;;;;;6838118;26;20077;-68
2024/04/24 10:14:53;;;;;;;6.65;3.55;;;14.20;36.90;;;;;;6800810;25;20005;-68
2024/04/24 10:17:54;;;;;;;4.18;2.60;;;14.30;37.40;;;;;;6829512;26;20440;-67
2024/04/24 10:20:56;;;;;;;6.38;3.05;;;14.40;36.80;;;;;;6805764;26;19998;-67
2024/04/24 10:23:57;;;;;;;7.32;3.22;;;14.40;36.40;;;;;;6836204;26;19998;-67
2024/04/24 10:27:00;;;;;;;8.60;3.85;;;14.50;36.30;;;;;;6837433;25;20068;-68
2024/04/24 10:30:03;;;;;;;5.88;2.42;;;14.50;36.20;;;;;;6838826;26;20012;-68
2024/04/24 10:33:06;;;;;;;4.97;3.30;;;14.70;36.00;;;;;;6837217;26;19998;-68
2024/04/24 10:36:08;;;;;;;5.15;3.00;;;14.90;35.90;;;;;;6839147;25;20012;-68
2024/04/24 10:39:10;;;;;;;15.15;3.33;;;15.00;35.90;;;;;;6806943;26;20008;-71
2024/04/24 10:42:12;;;;;;;7.43;3.55;;;15.20;35.40;;;;;;6806313;26;20031;-68
2024/04/24 10:45:17;;;;;;;5.30;2.90;;;15.30;34.90;;;;;;6803841;25;19993;-68
2024/04/24 10:48:19;;;;;;;4.45;2.80;;;15.40;34.20;;;;;;6837306;26;20120;-66
2024/04/24 10:51:33;;;;;;;8.73;2.75;;;15.50;33.80;;;;;;6836209;26;20380;-69
2024/04/24 10:54:34;;;;;;;8.65;3.03;;;15.70;33.00;;;;;;6805980;26;20078;-69
2024/04/24 10:57:37;;;;;;;4.78;2.30;;;16.00;32.70;;;;;;6836224;26;20314;-68
2024/04/24 11:00:42;;;;;;;6.50;2.00;;;16.30;32.20;;;;;;6836648;26;20110;-67
2024/04/24 11:03:42;;;;;;;5.22;2.83;;;16.50;31.50;;;;;;6792681;26;19998;-68
2024/04/24 11:06:44;;;;;;;3.53;2.38;;;16.60;30.80;;;;;;6817866;26;20603;-65
2024/04/24 11:09:47;;;;;;;4.68;2.17;;;16.50;30.70;;;;;;6833150;26;20189;-67
2024/04/24 11:12:49;;;;;;;4.55;2.35;;;16.60;30.70;;;;;;6837541;25;20106;-68
2024/04/24 11:15:59;;;;;;;4.28;2.50;;;16.90;30.20;;;;;;6804206;26;20021;-67
2024/04/24 11:19:01;;;;;;;3.05;2.10;;;17.30;29.40;;;;;;6806892;26;20005;-67
2024/04/24 11:22:02;;;;;;;3.65;2.38;;;17.70;29.00;;;;;;6840852;26;19997;-66
2024/04/24 11:25:09;;;;;;;3.78;2.70;;;17.90;28.40;;;;;;6842003;26;20013;-67
2024/04/24 11:28:17;;;;;;;5.88;2.72;;;18.10;28.30;;;;;;6807874;26;19998;-66
2024/04/24 11:31:19;;;;;;;4.93;2.95;;;18.30;28.50;;;;;;6840272;26;20532;-67
2024/04/24 11:34:21;;;;;;;6.43;3.20;;;18.20;28.40;;;;;;6841941;25;20013;-67
2024/04/24 11:37:22;;;;;;;6.35;3.17;;;17.90;28.70;;;;;;6840313;25;19997;-67
2024/04/24 11:40:23;;;;;;;4.82;2.97;;;17.80;28.90;;;;;;6839668;26;20624;-66
2024/04/24 11:43:25;;;;;;;4.70;2.45;;;17.80;29.00;;;;;;6842007;25;20012;-66
2024/04/24 11:46:28;;;;;;;7.20;2.90;;;17.90;29.00;;;;;;6839063;26;20001;-68
2024/04/24 11:49:29;;;;;;;4.28;2.50;;;18.20;28.80;;;;;;6840751;26;20013;-71
2024/04/24 11:52:42;;;;;;;4.28;2.53;;;18.40;28.60;;;;;;6840346;26;20466;-67
2024/04/24 11:55:43;;;;;;;5.15;2.45;;;18.50;28.20;;;;;;6808316;26;20001;-66
2024/04/24 11:58:47;;;;;;;4.85;2.80;;;18.70;27.70;;;;;;6839822;25;20001;-67
2024/04/24 12:01:48;;;;;;;3.28;2.25;;;18.90;27.60;;;;;;6841414;26;20117;-68
2024/04/24 12:04:50;;;;;;;3.20;1.95;;;19.20;27.30;;;;;;6778396;26;19998;-68
2024/04/24 12:07:54;;;;;;;3.40;2.08;;;19.60;26.60;;;;;;6808609;26;19997;-67
2024/04/24 12:11:04;;;;;;;2.55;1.55;;;19.40;26.20;;;;;;6779389;25;20042;-68
2024/04/24 12:14:05;;;;;;;2.55;1.70;;;19.00;25.80;;;;;;6778713;26;20371;-68
2024/04/24 12:17:06;;;;;;;3.67;2.10;;;18.50;26.10;;;;;;6807586;26;19994;-69
2024/04/24 12:20:08;;;;;;;3.53;1.92;;;18.30;26.50;;;;;;6803253;26;20016;-68
2024/04/24 12:23:10;;;;;;;2.05;1.60;;;18.40;26.80;;;;;;6807482;26;19989;-67
2024/04/24 12:26:12;;;;;;;4.90;2.70;;;18.50;26.60;;;;;;6807877;26;20011;-67
2024/04/24 12:29:15;;;;;;;10.52;2.05;;;18.70;26.40;;;;;;6806743;26;20016;-68
2024/04/24 12:32:17;;;;;;;5.43;1.80;;;19.00;26.20;;;;;;6806931;26;20006;-68
2024/04/24 12:35:18;;;;;;;2.35;1.40;;;19.10;26.10;;;;;;6805217;26;20073;-66
2024/04/24 12:38:18;;;;;;;2.40;1.70;;;19.10;25.70;;;;;;6807010;26;20093;-68
2024/04/24 12:41:22;;;;;;;2.25;1.42;;;19.20;25.70;;;;;;6825395;26;20322;-67
2024/04/24 12:44:26;;;;;;;2.92;1.30;;;19.10;25.60;;;;;;6836686;26;20012;-69
2024/04/24 12:47:28;;;;;;;2.50;1.70;;;18.90;25.50;;;;;;6806209;26;19997;-66
2024/04/24 12:50:30;;;;;;;2.75;2.22;;;19.30;25.10;;;;;;6805155;26;20035;-68
2024/04/24 12:53:30;;;;;;;5.63;2.38;;;19.40;25.10;;;;;;6810266;26;20097;-68
2024/04/24 12:56:31;;;;;;;5.85;2.72;;;19.60;24.90;;;;;;6808200;26;20528;-66
2024/04/24 12:59:32;;;;;;;3.67;2.13;;;20.20;24.90;;;;;;6807406;26;20013;-69
2024/04/24 13:02:37;;;;;;;4.78;2.25;;;20.50;24.50;;;;;;6838974;26;20041;-69
2024/04/24 13:05:41;;;;;;;3.88;2.05;;;20.20;24.40;;;;;;6837430;26;20120;-69
2024/04/24 13:08:42;;;;;;;3.90;2.20;;;19.90;24.80;;;;;;6805991;26;20113;-69
2024/04/24 13:11:43;;;;;;;3.88;2.22;;;19.70;25.60;;;;;;6806870;25;20073;-69
2024/04/24 13:14:45;;;;;;;5.70;2.63;;;19.50;25.10;;;;;;6747215;26;20085;-69
2024/04/24 13:17:48;;;;;;;4.55;2.33;;;19.40;25.30;;;;;;6808015;26;20041;-67
2024/04/24 13:20:50;;;;;;;6.00;2.35;;;19.50;25.30;;;;;;6776675;26;19994;-68
2024/04/24 13:23:54;;;;;;;4.57;2.55;;;19.80;25.00;;;;;;6806509;26;19997;-69
2024/04/24 13:26:55;;;;;;;3.83;2.22;;;20.50;24.90;;;;;;6765750;26;20335;-68
2024/04/24 13:29:56;;;;;;;4.13;2.58;;;21.20;24.10;;;;;;6783373;26;19993;-67
2024/04/24 13:32:56;;;;;;;6.93;2.50;;;21.60;23.70;;;;;;6777721;26;19997;-68
2024/04/24 13:36:00;;;;;;;4.88;2.50;;;22.20;23.10;;;;;;6839409;25;19994;-69
2024/04/24 13:39:01;;;;;;;7.55;2.70;;;22.10;22.70;;;;;;6776144;26;20021;-68
2024/04/24 13:42:04;;;;;;;3.50;2.35;;;22.10;22.80;;;;;;6840449;26;20003;-68
2024/04/24 13:45:05;;;;;;;9.18;2.30;;;22.10;23.00;;;;;;6806079;26;20105;-68
2024/04/24 13:48:08;;;;;;;3.88;2.50;;;22.10;22.90;;;;;;6837979;26;20398;-68
2024/04/24 13:51:09;;;;;;;7.28;3.20;;;22.00;23.10;;;;;;6804729;26;19994;-67
2024/04/24 13:54:13;;;;;;;4.00;2.83;;;21.90;23.10;;;;;;6806542;26;20424;-67
2024/04/24 13:57:14;;;;;;;6.10;2.92;;;22.40;22.70;;;;;;6806315;25;20012;-69
2024/04/24 14:00:16;;;;;;;6.65;2.75;;;23.10;22.20;;;;;;6838810;26;19990;-66
2024/04/24 14:03:17;;;;;;;5.20;2.85;;;24.00;21.50;;;;;;6838780;25;20007;-66
2024/04/24 14:06:18;;;;;;;4.75;2.90;;;24.50;21.20;;;;;;6836414;26;20021;-66
2024/04/24 14:09:19;;;;;;;8.50;2.67;;;24.80;20.70;;;;;;6837602;25;20509;-69
2024/04/24 14:12:20;;;;;;;6.13;2.88;;;24.70;20.50;;;;;;6806870;26;19993;-68
2024/04/24 14:15:21;;;;;;;5.40;2.80;;;23.90;21.00;;;;;;6836626;25;20434;-66
2024/04/24 14:18:22;;;;;;;5.40;2.88;;;22.90;21.80;;;;;;6835365;25;20005;-68
2024/04/24 14:21:23;;;;;;;7.57;2.83;;;22.00;22.70;;;;;;6835604;26;20057;-68
2024/04/24 14:24:25;;;;;;;3.67;2.42;;;21.30;23.60;;;;;;6805355;25;20088;-67
2024/04/24 14:27:27;;;;;;;5.20;2.33;;;20.80;24.00;;;;;;6837942;26;20008;-67
2024/04/24 14:30:28;;;;;;;3.63;2.75;;;20.60;24.30;;;;;;6835607;26;19989;-69
2024/04/24 14:33:31;;;;;;;3.97;2.38;;;20.60;24.50;;;;;;6836920;26;20418;-68
2024/04/24 14:36:32;;;;;;;4.85;2.72;;;20.50;24.80;;;;;;6804702;26;20008;-67
2024/04/24 14:39:33;;;;;;;13.82;2.75;;;20.40;25.00;;;;;;6826256;25;20033;-68
2024/04/24 14:42:34;;;;;;;4.18;3.05;;;20.30;25.30;;;;;;6830209;26;20013;-67
2024/04/24 14:45:36;;;;;;;7.22;3.03;;;20.20;25.50;;;;;;6834234;25;20041;-68
2024/04/24 14:48:39;;;;;;;3.75;2.83;;;20.10;25.50;;;;;;6821450;26;20220;-69
2024/04/24 14:51:40;;;;;;;4.50;2.83;;;19.80;25.70;;;;;;6789444;26;20002;-68
2024/04/24 14:54:42;;;;;;;6.10;3.17;;;19.50;26.50;;;;;;6833435;25;20009;-66
2024/04/24 14:57:43;;;;;;;8.95;3.15;;;19.40;26.30;;;;;;6822210;25;20005;-67
2024/04/24 15:00:44;;;;;;;5.25;3.00;;;19.10;26.60;;;;;;6838550;25;19997;-68
2024/04/24 15:03:45;;;;;;;8.07;3.20;;;18.80;26.90;;;;;;6840164;26;19998;-68
2024/04/24 15:07:10;;;;;;;4.72;3.03;;;18.70;27.20;;;;;;6840129;26;20002;-67
2024/04/24 15:10:12;;;;;;;4.00;2.67;;;18.70;27.80;;;;;;6839884;26;20008;-68
2024/04/24 15:13:12;;;;;;;8.00;2.88;;;18.60;27.40;;;;;;6840899;25;20036;-69
2024/04/24 15:16:13;;;;;;;7.55;2.40;;;18.60;27.50;;;;;;6841532;26;20031;-67
2024/04/24 15:19:14;;;;;;;5.35;2.90;;;18.50;27.60;;;;;;6838499;26;20032;-68
2024/04/24 15:22:15;;;;;;;5.80;2.95;;;18.50;27.70;;;;;;6809137;26;19997;-66
2024/04/24 15:25:17;;;;;;;4.25;2.22;;;18.40;27.80;;;;;;6839472;26;20390;-67
2024/04/24 15:28:18;;;;;;;4.55;2.67;;;18.20;28.00;;;;;;6838890;26;20090;-66
2024/04/24 15:31:20;;;;;;;5.85;2.83;;;18.10;28.20;;;;;;6808338;26;20371;-67
2024/04/24 15:34:23;;;;;;;11.35;3.05;;;17.90;28.40;;;;;;6840759;26;20345;-68
2024/04/24 15:37:25;;;;;;;3.33;2.38;;;17.80;28.80;;;;;;6838751;26;20078;-67
2024/04/24 15:40:25;;;;;;;12.43;3.15;;;17.50;29.10;;;;;;6837914;26;20446;-67
2024/04/24 15:43:28;;;;;;;3.70;2.47;;;17.30;29.40;;;;;;6838414;25;20497;-68
2024/04/24 15:46:31;;;;;;;5.88;3.15;;;17.20;29.60;;;;;;6785032;26;19994;-67